createdAt,value
2023-05-17T00:02:27.594Z,33.54
2023-05-17T00:04:56.724Z,33.73
2023-05-17T00:07:25.394Z,33.56
2023-05-17T00:09:54.098Z,33.96
2023-05-17T00:12:22.381Z,33.86
2023-05-17T00:14:51.029Z,33.88
2023-05-17T00:17:20.864Z,33.78
2023-05-17T00:19:49.563Z,33.69
2023-05-17T00:22:17.925Z,34.07
2023-05-17T00:24:46.899Z,34.09
2023-05-17T00:27:15.043Z,33.92
2023-05-17T00:29:43.969Z,33.89
2023-05-17T00:32:12.310Z,34.08
2023-05-17T00:34:42.538Z,33.59
2023-05-17T00:37:10.915Z,34.07
2023-05-17T00:39:39.481Z,34.04
2023-05-17T00:42:08.547Z,33.79
2023-05-17T00:44:37.134Z,33.72
2023-05-17T00:47:05.815Z,33.79
2023-05-17T00:49:34.597Z,33.95
2023-05-17T00:52:04.426Z,33.54
2023-05-17T00:54:33.316Z,33.79
2023-05-17T00:57:01.849Z,33.72
2023-05-17T00:59:31.102Z,33.63
2023-05-17T01:01:59.726Z,33.43
2023-05-17T01:04:28.353Z,33.36
2023-05-17T01:06:57.472Z,33.68
2023-05-17T01:09:27.520Z,33.19
2023-05-17T01:12:00.958Z,32.98
2023-05-17T01:14:40.947Z,32.66
2023-05-17T01:17:15.831Z,32.95
2023-05-17T01:19:53.162Z,32.94
2023-05-17T01:22:29.577Z,32.86
2023-05-17T01:25:09.974Z,32.81
2023-05-17T01:27:42.689Z,32.95
2023-05-17T01:30:14.336Z,32.90
2023-05-17T01:32:43.620Z,33.49
2023-05-17T01:35:13.092Z,33.30
2023-05-17T01:37:41.708Z,33.44
2023-05-17T01:40:11.405Z,33.14
2023-05-17T01:42:43.350Z,32.78
2023-05-17T01:45:14.901Z,33.07
2023-05-17T01:47:45.012Z,31.51
2023-05-17T01:50:16.583Z,32.64
2023-05-17T01:52:51.464Z,32.73
2023-05-17T01:55:27.786Z,32.63
2023-05-17T01:57:58.615Z,32.97
2023-05-17T02:00:28.163Z,33.51
2023-05-17T02:02:56.675Z,33.62
2023-05-17T02:05:25.589Z,33.73
2023-05-17T02:07:54.005Z,33.83
2023-05-17T02:10:22.789Z,33.86
2023-05-17T02:12:51.139Z,34.04
2023-05-17T02:15:21.108Z,33.60
2023-05-17T02:17:49.855Z,33.85
2023-05-17T02:20:18.493Z,34.04
2023-05-17T02:22:46.968Z,34.00
2023-05-17T02:25:15.650Z,34.32
2023-05-17T02:27:43.917Z,34.59
2023-05-17T02:30:15.746Z,34.46
2023-05-17T02:32:48.062Z,34.13
2023-05-17T02:35:16.914Z,34.30
2023-05-17T02:37:45.429Z,34.48
2023-05-17T02:40:14.870Z,34.54
2023-05-17T02:42:43.382Z,34.89
2023-05-17T02:45:12.800Z,34.60
2023-05-17T02:47:41.543Z,34.64
2023-05-17T02:50:11.992Z,34.40
2023-05-17T02:52:40.903Z,34.47
2023-05-17T02:55:11.215Z,34.45
2023-05-17T02:57:39.535Z,34.45
2023-05-17T03:00:12.811Z,34.11
2023-05-17T03:02:41.414Z,34.35
2023-05-17T03:05:12.333Z,34.25
2023-05-17T03:07:40.840Z,34.59
2023-05-17T03:10:10.267Z,34.61
2023-05-17T03:12:38.911Z,34.44
2023-05-17T03:15:08.374Z,34.28
2023-05-17T03:17:37.110Z,34.60
2023-05-17T03:20:08.004Z,34.19
2023-05-17T03:22:38.929Z,34.31
2023-05-17T03:25:07.765Z,34.75
2023-05-17T03:27:36.414Z,34.74
2023-05-17T03:30:05.424Z,34.49
2023-05-17T03:32:33.859Z,34.76
2023-05-17T03:35:02.600Z,34.75
2023-05-17T03:37:30.985Z,34.76
2023-05-17T03:40:01.196Z,34.60
2023-05-17T03:42:29.712Z,34.95
2023-05-17T03:44:58.871Z,34.75
2023-05-17T03:47:27.456Z,34.98
2023-05-17T03:49:56.185Z,35.04
2023-05-17T03:52:25.086Z,35.01
2023-05-17T03:54:53.802Z,34.99
2023-05-17T03:57:23.673Z,34.36
2023-05-17T03:59:52.333Z,35.07
2023-05-17T04:02:21.265Z,34.54
2023-05-17T04:04:51.445Z,34.67
2023-05-17T04:07:20.300Z,34.79
2023-05-17T04:09:49.109Z,34.56
2023-05-17T04:12:17.586Z,34.75
2023-05-17T04:14:47.497Z,34.35
2023-05-17T04:17:16.951Z,34.56
2023-05-17T04:19:45.956Z,34.66
2023-05-17T04:22:14.410Z,34.55
2023-05-17T04:24:43.163Z,34.27
2023-05-17T04:27:11.446Z,34.17
2023-05-17T04:29:41.058Z,34.40
2023-05-17T04:32:11.093Z,33.78
2023-05-17T04:34:39.757Z,34.01
2023-05-17T04:37:08.209Z,34.41
2023-05-17T04:39:36.976Z,34.12
2023-05-17T04:42:06.188Z,34.27
2023-05-17T04:44:34.937Z,34.44
2023-05-17T04:47:04.186Z,34.31
2023-05-17T04:49:34.702Z,34.12
2023-05-17T04:52:05.923Z,34.11
2023-05-17T04:54:35.042Z,33.99
2023-05-17T04:57:03.799Z,33.72
2023-05-17T04:59:32.656Z,33.57
2023-05-17T05:02:01.315Z,33.79
2023-05-17T05:04:29.962Z,33.64
2023-05-17T05:06:59.970Z,33.64
2023-05-17T05:09:28.688Z,33.73
2023-05-17T05:11:57.788Z,33.59
2023-05-17T05:14:26.625Z,33.59
2023-05-17T05:16:55.780Z,33.55
2023-05-17T05:19:24.893Z,33.46
2023-05-17T05:21:53.273Z,33.38
2023-05-17T05:24:23.695Z,33.03
2023-05-17T05:26:52.203Z,33.23
2023-05-17T05:29:20.848Z,33.02
2023-05-17T05:31:49.203Z,33.06
2023-05-17T05:34:18.035Z,32.93
2023-05-17T05:36:47.432Z,33.01
2023-05-17T05:39:16.370Z,33.09
2023-05-17T05:41:46.497Z,32.82
2023-05-17T05:44:15.297Z,33.05
2023-05-17T05:46:43.470Z,32.96
2023-05-17T05:49:12.371Z,32.61
2023-05-17T05:51:40.892Z,32.78
2023-05-17T05:54:09.928Z,32.61
2023-05-17T05:56:38.239Z,32.89
2023-05-17T05:59:08.879Z,32.50
2023-05-17T06:01:37.810Z,32.79
2023-05-17T06:04:06.785Z,32.64
2023-05-17T06:06:35.439Z,32.69
2023-05-17T06:09:07.233Z,32.70
2023-05-17T06:11:35.392Z,31.00
2023-05-17T06:14:04.160Z,32.41
2023-05-17T06:16:33.988Z,32.29
2023-05-17T06:19:02.911Z,32.63
2023-05-17T06:21:31.339Z,32.39
2023-05-17T06:24:01.398Z,32.65
2023-05-17T06:26:31.665Z,32.60
2023-05-17T06:29:00.472Z,32.46
2023-05-17T06:31:29.577Z,32.39
2023-05-17T06:33:59.882Z,32.12
2023-05-17T06:36:28.187Z,32.33
2023-05-17T06:38:57.067Z,32.25
2023-05-17T06:41:25.503Z,32.65
2023-05-17T06:43:54.155Z,32.70
2023-05-17T06:46:22.805Z,32.84
2023-05-17T06:48:51.687Z,32.75
2023-05-17T06:51:21.583Z,32.79
2023-05-17T06:53:50.466Z,33.15
2023-05-17T06:56:18.901Z,33.30
2023-05-17T06:58:47.678Z,33.23
2023-05-17T07:01:17.199Z,33.44
2023-05-17T07:03:46.019Z,33.55
2023-05-17T07:06:14.565Z,33.54
2023-05-17T07:08:44.741Z,33.29
2023-05-17T07:11:13.357Z,33.55
2023-05-17T07:13:42.122Z,33.77
2023-05-17T07:16:10.501Z,33.74
2023-05-17T07:18:39.333Z,33.59
2023-05-17T07:21:08.612Z,33.56
2023-05-17T07:23:37.513Z,33.62
2023-05-17T07:26:07.351Z,33.03
2023-05-17T07:28:35.940Z,33.48
2023-05-17T07:31:04.403Z,33.50
2023-05-17T07:33:33.194Z,33.23
2023-05-17T07:36:01.766Z,33.67
2023-05-17T07:38:30.651Z,33.47
2023-05-17T07:40:59.244Z,33.57
2023-05-17T07:43:29.705Z,33.27
2023-05-17T07:45:58.187Z,33.62
2023-05-17T07:48:27.516Z,33.57
2023-05-17T07:50:56.586Z,33.40
2023-05-17T07:53:25.378Z,33.70
2023-05-17T07:55:53.994Z,33.65
2023-05-17T07:58:22.772Z,33.44
2023-05-17T08:00:52.832Z,33.31
2023-05-17T08:03:21.671Z,33.58
2023-05-17T08:05:50.252Z,33.67
2023-05-17T08:08:19.751Z,33.93
2023-05-17T08:10:48.207Z,33.79
2023-05-17T08:13:17.048Z,33.67
2023-05-17T08:15:45.916Z,33.72
2023-05-17T08:18:16.126Z,33.46
2023-05-17T08:20:45.890Z,33.96
2023-05-17T08:23:15.741Z,33.87
2023-05-17T08:25:44.473Z,33.87
2023-05-17T08:28:13.285Z,33.84
2023-05-17T08:30:41.927Z,33.79
2023-05-17T08:33:10.986Z,33.82
2023-05-17T08:35:40.836Z,33.56
2023-05-17T08:38:10.536Z,33.65
2023-05-17T08:40:39.011Z,33.66
2023-05-17T08:43:09.061Z,33.41
2023-05-17T08:45:38.181Z,33.59
2023-05-17T08:48:07.698Z,33.79
2023-05-17T08:50:36.913Z,33.83
2023-05-17T08:53:07.138Z,33.52
2023-05-17T08:55:36.564Z,33.78
2023-05-17T08:58:05.643Z,33.83
2023-05-17T09:00:35.237Z,33.92
2023-05-17T09:03:04.104Z,33.33
2023-05-17T09:05:33.092Z,33.33
2023-05-17T09:08:02.287Z,33.27
2023-05-17T09:10:32.688Z,33.19
2023-05-17T09:13:01.337Z,33.19
2023-05-17T09:15:31.305Z,33.19
2023-05-17T09:18:00.450Z,32.92
2023-05-17T09:20:34.334Z,32.49
2023-05-17T09:23:04.319Z,32.53
2023-05-17T09:25:34.411Z,31.98
2023-05-17T09:28:03.902Z,32.24
2023-05-17T09:30:34.497Z,32.05
2023-05-17T09:33:07.396Z,31.56
2023-05-17T09:35:36.943Z,32.13
2023-05-17T09:38:08.702Z,31.63
2023-05-17T09:40:41.616Z,31.56
2023-05-17T09:43:13.082Z,31.59
2023-05-17T09:45:41.526Z,30.48
2023-05-17T09:48:15.280Z,31.24
2023-05-17T09:50:48.014Z,31.64
2023-05-17T09:53:27.373Z,31.17
2023-05-17T09:56:00.038Z,31.74
2023-05-17T09:58:30.032Z,32.20
2023-05-17T10:01:01.909Z,31.83
2023-05-17T10:03:33.410Z,32.13
2023-05-17T10:06:05.750Z,31.69
2023-05-17T10:08:35.162Z,31.89
2023-05-17T10:11:11.919Z,31.24
2023-05-17T10:13:44.986Z,31.32
2023-05-17T10:16:13.648Z,31.96
2023-05-17T10:18:42.414Z,31.82
2023-05-17T10:21:11.801Z,31.95
2023-05-17T10:23:42.224Z,31.65
2023-05-17T10:26:12.081Z,31.04
2023-05-17T10:28:41.354Z,31.42
2023-05-17T10:31:09.941Z,31.00
2023-05-17T10:33:40.019Z,30.89
2023-05-17T10:36:08.803Z,30.84
2023-05-17T10:38:42.542Z,30.39
2023-05-17T10:41:14.173Z,30.14
2023-05-17T10:43:43.695Z,30.41
2023-05-17T10:46:16.964Z,29.74
2023-05-17T10:48:46.965Z,30.09
2023-05-17T10:51:18.856Z,30.23
2023-05-17T10:54:06.746Z,29.27
2023-05-17T10:56:37.351Z,30.03
2023-05-17T10:59:25.083Z,29.02
2023-05-17T11:01:56.402Z,29.83
2023-05-17T11:04:26.180Z,28.63
2023-05-17T11:06:57.601Z,29.76
2023-05-17T11:09:26.202Z,30.05
2023-05-17T11:12:10.174Z,29.63
2023-05-17T11:14:48.371Z,29.82
2023-05-17T11:17:20.925Z,30.29
2023-05-17T11:20:06.489Z,29.77
2023-05-17T11:22:43.297Z,30.28
2023-05-17T11:25:13.347Z,31.07
2023-05-17T11:27:48.187Z,30.89
2023-05-17T11:30:23.033Z,31.00
2023-05-17T11:32:53.556Z,31.25
2023-05-17T11:35:27.385Z,30.70
2023-05-17T11:38:14.794Z,30.31
2023-05-17T11:40:43.961Z,31.57
2023-05-17T11:43:15.838Z,31.26
2023-05-17T11:45:46.131Z,31.79
2023-05-17T11:48:15.634Z,32.00
2023-05-17T11:50:45.688Z,31.93
2023-05-17T11:53:14.713Z,32.09
2023-05-17T11:55:44.436Z,31.63
2023-05-17T11:58:16.714Z,31.18
2023-05-17T12:00:46.003Z,31.25
2023-05-17T12:03:18.698Z,30.82
2023-05-17T12:05:48.703Z,31.38
2023-05-17T12:08:18.535Z,31.12
2023-05-17T12:10:49.348Z,31.11
2023-05-17T12:13:19.054Z,31.00
2023-05-17T12:15:52.685Z,31.04
2023-05-17T12:18:21.406Z,31.51
2023-05-17T12:20:57.435Z,30.60
2023-05-17T12:23:32.618Z,30.91
2023-05-17T12:26:06.627Z,31.32
2023-05-17T12:28:38.185Z,31.46
2023-05-17T12:31:09.689Z,31.63
2023-05-17T12:33:41.572Z,31.72
2023-05-17T12:36:11.278Z,32.05
2023-05-17T12:38:41.991Z,31.70
2023-05-17T12:41:12.942Z,31.62
2023-05-17T12:43:45.652Z,31.71
2023-05-17T12:46:15.611Z,32.02
2023-05-17T12:48:44.237Z,32.12
2023-05-17T12:51:14.168Z,31.38
2023-05-17T12:53:43.668Z,31.18
2023-05-17T12:56:16.876Z,30.42
2023-05-17T12:59:04.526Z,30.31
2023-05-17T13:01:37.854Z,30.18
2023-05-17T13:04:06.824Z,30.55
2023-05-17T13:06:54.368Z,29.32
2023-05-17T13:09:24.338Z,30.19
2023-05-17T13:11:54.878Z,30.23
2023-05-17T13:14:38.324Z,29.59
2023-05-17T13:17:08.248Z,30.70
2023-05-17T13:19:36.948Z,30.89
2023-05-17T13:22:06.765Z,30.94
2023-05-17T13:24:36.272Z,30.98
2023-05-17T13:27:05.791Z,30.73
2023-05-17T13:29:39.349Z,30.85
2023-05-17T13:32:12.621Z,30.53
2023-05-17T13:34:42.796Z,30.92
2023-05-17T13:37:12.767Z,31.41
2023-05-17T13:39:42.743Z,31.24
2023-05-17T13:42:11.888Z,31.51
2023-05-17T13:44:41.957Z,31.61
2023-05-17T13:47:12.660Z,31.40
2023-05-17T13:49:41.279Z,31.53
2023-05-17T13:52:10.211Z,31.79
2023-05-17T13:54:39.243Z,31.85
2023-05-17T13:57:08.665Z,31.92
2023-05-17T13:59:36.965Z,32.01
2023-05-17T14:02:05.808Z,32.14
2023-05-17T14:04:36.357Z,31.89
2023-05-17T14:07:05.685Z,32.35
2023-05-17T14:09:34.775Z,32.46
2023-05-17T14:12:03.499Z,32.25
2023-05-17T14:14:32.064Z,32.32
2023-05-17T14:17:01.745Z,32.29
2023-05-17T14:19:30.527Z,32.38
2023-05-17T14:22:01.112Z,31.94
2023-05-17T14:24:29.490Z,32.12
2023-05-17T14:26:58.779Z,31.90
2023-05-17T14:29:27.122Z,32.05
2023-05-17T14:31:56.023Z,31.99
2023-05-17T14:34:24.592Z,32.26
2023-05-17T14:36:53.565Z,32.43
2023-05-17T14:39:23.302Z,32.02
2023-05-17T14:41:52.146Z,32.31
2023-05-17T14:44:20.740Z,32.41
2023-05-17T14:46:49.522Z,32.40
2023-05-17T14:49:17.893Z,32.36
2023-05-17T14:51:46.575Z,32.37
2023-05-17T14:54:15.223Z,32.81
2023-05-17T14:56:45.520Z,32.53
2023-05-17T14:59:13.976Z,32.81
2023-05-17T15:01:42.613Z,33.00
2023-05-17T15:04:11.084Z,33.05
2023-05-17T15:06:39.982Z,33.04
2023-05-17T15:09:12.434Z,32.95
2023-05-17T15:11:42.337Z,33.06
2023-05-17T15:14:12.134Z,32.66
2023-05-17T15:16:41.976Z,32.71
2023-05-17T15:19:10.375Z,32.80
2023-05-17T15:21:39.043Z,32.78
2023-05-17T15:24:08.260Z,32.80
2023-05-17T15:26:36.931Z,32.91
2023-05-17T15:29:05.410Z,32.70
2023-05-17T15:31:35.418Z,32.73
2023-05-17T15:34:04.996Z,33.12
2023-05-17T15:36:34.738Z,33.19
2023-05-17T15:39:03.203Z,33.27
2023-05-17T15:41:33.188Z,32.89
2023-05-17T15:44:01.948Z,33.27
2023-05-17T15:46:30.802Z,33.08
2023-05-17T15:49:00.851Z,32.79
2023-05-17T15:51:29.322Z,33.01
2023-05-17T15:53:57.818Z,32.96
2023-05-17T15:56:27.231Z,33.04
2023-05-17T15:58:55.744Z,32.95
2023-05-17T16:01:24.610Z,32.92
2023-05-17T16:03:53.035Z,33.08
2023-05-17T16:06:23.761Z,32.72
2023-05-17T16:08:52.243Z,32.72
2023-05-17T16:11:21.557Z,32.56
2023-05-17T16:13:49.777Z,32.53
2023-05-17T16:16:18.404Z,32.40
2023-05-17T16:18:46.901Z,32.45
2023-05-17T16:21:16.086Z,32.46
2023-05-17T16:23:46.610Z,31.79
2023-05-17T16:26:15.972Z,31.74
2023-05-17T16:28:44.261Z,31.71
2023-05-17T16:31:13.179Z,31.62
2023-05-17T16:33:42.558Z,31.35
2023-05-17T16:36:12.610Z,31.11
2023-05-17T16:38:41.113Z,31.05
2023-05-17T16:41:11.257Z,30.70
2023-05-17T16:43:39.501Z,31.12
2023-05-17T16:46:08.188Z,30.99
2023-05-17T16:48:36.708Z,31.08
2023-05-17T16:51:05.835Z,31.06
2023-05-17T16:53:34.222Z,31.00
2023-05-17T16:56:02.907Z,31.06
2023-05-17T16:58:32.556Z,30.95
2023-05-17T17:01:01.801Z,31.27
2023-05-17T17:03:30.389Z,31.28
2023-05-17T17:05:59.164Z,31.59
2023-05-17T17:08:27.701Z,31.32
2023-05-17T17:10:56.357Z,31.28
2023-05-17T17:13:24.974Z,31.50
2023-05-17T17:15:55.029Z,31.13
2023-05-17T17:18:24.212Z,31.37
2023-05-17T17:20:52.843Z,31.45
2023-05-17T17:23:21.983Z,31.51
2023-05-17T17:25:50.549Z,31.68
2023-05-17T17:28:18.996Z,31.69
2023-05-17T17:30:48.607Z,31.52
2023-05-17T17:33:18.485Z,31.21
2023-05-17T17:35:47.078Z,31.68
2023-05-17T17:38:15.625Z,31.61
2023-05-17T17:40:44.396Z,31.78
2023-05-17T17:43:13.040Z,31.79
2023-05-17T17:45:41.915Z,31.87
2023-05-17T17:48:10.723Z,31.64
2023-05-17T17:50:41.412Z,31.54
2023-05-17T17:53:09.952Z,31.68
2023-05-17T17:55:38.760Z,31.83
2023-05-17T17:58:07.348Z,32.00
2023-05-17T18:00:36.239Z,32.01
2023-05-17T18:03:04.755Z,32.28
2023-05-17T18:05:34.598Z,32.24
2023-05-17T18:08:05.008Z,32.03
2023-05-17T18:10:33.670Z,32.19
2023-05-17T18:13:02.214Z,32.44
2023-05-17T18:15:30.919Z,32.43
2023-05-17T18:17:59.828Z,32.31
2023-05-17T18:20:28.853Z,32.43
2023-05-17T18:22:57.463Z,32.44
2023-05-17T18:25:27.745Z,32.24
2023-05-17T18:27:56.052Z,32.49
2023-05-17T18:30:25.001Z,32.30
2023-05-17T18:32:53.527Z,32.43
2023-05-17T18:35:22.397Z,32.28
2023-05-17T18:37:51.271Z,32.33
2023-05-17T18:40:19.956Z,32.49
2023-05-17T18:42:49.887Z,32.18
2023-05-17T18:45:19.579Z,32.29
2023-05-17T18:47:48.159Z,32.35
2023-05-17T18:50:17.066Z,32.31
2023-05-17T18:52:45.516Z,32.52
2023-05-17T18:55:14.911Z,32.28
2023-05-17T18:57:46.914Z,31.96
2023-05-17T19:00:17.484Z,32.19
2023-05-17T19:02:46.270Z,32.42
2023-05-17T19:05:15.269Z,32.41
2023-05-17T19:07:44.428Z,32.56
2023-05-17T19:10:13.796Z,32.46
2023-05-17T19:12:44.799Z,32.55
2023-05-17T19:15:14.286Z,32.47
2023-05-17T19:17:44.220Z,32.17
2023-05-17T19:20:13.579Z,32.32
2023-05-17T19:22:42.244Z,32.36
2023-05-17T19:25:11.049Z,32.22
2023-05-17T19:27:39.482Z,32.35
2023-05-17T19:30:09.883Z,32.32
2023-05-17T19:32:39.440Z,32.25
2023-05-17T19:35:10.849Z,31.96
2023-05-17T19:37:39.404Z,32.31
2023-05-17T19:40:09.597Z,31.96
2023-05-17T19:42:39.580Z,32.16
2023-05-17T19:45:11.176Z,31.72
2023-05-17T19:47:39.996Z,32.07
2023-05-17T19:50:12.108Z,31.68
2023-05-17T19:52:41.221Z,32.00
2023-05-17T19:55:10.258Z,32.04
2023-05-17T19:57:38.850Z,32.08
2023-05-17T20:00:09.246Z,32.05
2023-05-17T20:02:37.961Z,32.40
2023-05-17T20:05:07.576Z,32.02
2023-05-17T20:07:38.129Z,31.94
2023-05-17T20:10:07.010Z,32.17
2023-05-17T20:12:35.375Z,32.15
2023-05-17T20:15:06.305Z,32.03
2023-05-17T20:17:34.767Z,31.84
2023-05-17T20:20:05.454Z,31.70
2023-05-17T20:22:33.920Z,31.95
2023-05-17T20:25:04.415Z,31.67
2023-05-17T20:27:32.965Z,31.91
2023-05-17T20:30:01.749Z,31.87
2023-05-17T20:32:30.358Z,31.89
2023-05-17T20:34:59.233Z,32.01
2023-05-17T20:37:27.703Z,31.99
2023-05-17T20:39:57.531Z,32.04
2023-05-17T20:42:28.332Z,31.62
2023-05-17T20:44:58.074Z,31.85
2023-05-17T20:47:26.667Z,31.83
2023-05-17T20:49:56.763Z,31.88
2023-05-17T20:52:38.291Z,31.92
2023-05-17T20:55:10.024Z,31.71
2023-05-17T20:57:40.071Z,31.67
2023-05-17T21:00:11.882Z,31.92
2023-05-17T21:02:40.815Z,31.99
2023-05-17T21:05:10.954Z,31.86
2023-05-17T21:07:40.491Z,32.11
2023-05-17T21:10:10.756Z,31.92
2023-05-17T21:12:40.607Z,31.60
2023-05-17T21:17:43.444Z,31.94
2023-05-17T21:20:13.383Z,31.80
2023-05-17T21:22:41.962Z,31.89
2023-05-17T21:25:11.659Z,31.58
2023-05-17T21:27:41.409Z,31.56
2023-05-17T21:30:11.066Z,31.79
2023-05-17T21:32:39.524Z,31.92
2023-05-17T21:35:09.079Z,31.92
2023-05-17T21:37:40.217Z,31.88
2023-05-17T21:40:10.136Z,31.89
2023-05-17T21:42:38.954Z,32.05
2023-05-17T21:45:10.136Z,31.54
2023-05-17T21:47:39.106Z,31.83
2023-05-17T21:50:09.118Z,31.87
2023-05-17T21:52:38.347Z,31.97
2023-05-17T21:55:08.647Z,31.84
2023-05-17T21:57:37.516Z,31.86
2023-05-17T22:00:12.746Z,31.85
2023-05-17T22:02:41.234Z,31.79
2023-05-17T22:05:11.073Z,31.72
2023-05-17T22:07:40.287Z,31.68
2023-05-17T22:10:10.378Z,31.84
2023-05-17T22:12:38.831Z,31.81
2023-05-17T22:15:11.050Z,31.49
2023-05-17T22:17:51.182Z,31.60
2023-05-17T22:20:23.645Z,30.04
2023-05-17T22:22:52.653Z,31.62
2023-05-17T22:25:21.317Z,31.70
2023-05-17T22:27:49.962Z,31.42
2023-05-17T22:30:20.136Z,31.35
2023-05-17T22:32:48.527Z,31.70
2023-05-17T22:35:17.281Z,31.66
2023-05-17T22:37:45.584Z,31.64
2023-05-17T22:40:14.878Z,31.49
2023-05-17T22:42:43.327Z,31.59
2023-05-17T22:45:14.697Z,31.46
2023-05-17T22:47:46.920Z,31.15
2023-05-17T22:50:15.974Z,31.52
2023-05-17T22:52:46.665Z,31.33
2023-05-17T22:55:15.429Z,31.34
2023-05-17T22:57:43.901Z,31.32
2023-05-17T23:00:13.791Z,31.26
2023-05-17T23:02:42.208Z,31.24
2023-05-17T23:05:13.313Z,30.99
2023-05-17T23:07:43.304Z,31.45
2023-05-17T23:10:12.999Z,31.48
2023-05-17T23:12:41.379Z,31.43
2023-05-17T23:15:11.294Z,31.28
2023-05-17T23:17:40.006Z,31.42
2023-05-17T23:20:12.198Z,31.19
2023-05-17T23:22:42.035Z,30.97
2023-05-17T23:25:11.811Z,31.21
2023-05-17T23:27:40.424Z,31.58
2023-05-17T23:30:09.963Z,31.42
2023-05-17T23:32:38.856Z,31.31
2023-05-17T23:35:10.106Z,31.33
2023-05-17T23:37:38.433Z,31.38
2023-05-17T23:40:10.704Z,31.09
2023-05-17T23:42:39.099Z,31.38
2023-05-17T23:45:09.473Z,31.02
2023-05-17T23:47:41.130Z,31.53
2023-05-17T23:52:39.840Z,31.21
2023-05-17T23:55:10.555Z,31.02
2023-05-17T23:57:40.303Z,31.28
